Time;durP1;ratioP1;P1;durP2;ratioP2;P2;SDS_P1;SDS_P2;PMS_P1;PMS_P2;Temp;Humidity;BMP_temperature;BMP_pressure;BME280_temperature;BME280_humidity;BME280_pressure;Samples;Min_cycle;Max_cycle;Signal;HPM_P1;HPM_P2
2021/11/26 00:00:10;;;;;;;18.52;2.75;;;3.60;99.90;;;;;;5032592;28;20029;-66
2021/11/26 00:02:36;;;;;;;17.60;2.53;;;3.70;99.90;;;;;;5033289;28;20032;-67
2021/11/26 00:05:03;;;;;;;15.55;2.55;;;3.80;99.90;;;;;;5033234;28;20025;-67
2021/11/26 00:07:30;;;;;;;19.75;1.98;;;3.80;99.90;;;;;;5033209;28;20029;-67
2021/11/26 00:09:55;;;;;;;34.30;4.78;;;3.70;99.90;;;;;;5035140;28;20034;-67
2021/11/26 00:12:21;;;;;;;18.65;1.95;;;3.70;99.90;;;;;;5037236;28;20389;-67
2021/11/26 00:14:54;;;;;;;28.33;2.72;;;3.70;99.90;;;;;;5036918;28;20025;-67
2021/11/26 00:17:20;;;;;;;25.25;1.83;;;3.70;99.90;;;;;;5037672;28;20064;-66
2021/11/26 00:19:47;;;;;;;14.10;1.90;;;3.70;99.90;;;;;;5036492;28;20396;-67
2021/11/26 00:22:13;;;;;;;14.43;1.63;;;3.60;99.90;;;;;;5037052;28;20050;-67
2021/11/26 00:24:39;;;;;;;9.93;1.88;;;3.60;99.90;;;;;;5036702;28;20037;-67
2021/11/26 00:27:05;;;;;;;15.07;2.15;;;3.60;99.90;;;;;;5036603;28;20087;-67
2021/11/26 00:29:30;;;;;;;14.75;2.17;;;3.50;99.90;;;;;;5036590;28;20029;-67
2021/11/26 00:31:56;;;;;;;10.93;1.30;;;3.50;99.90;;;;;;5036538;28;20029;-67
2021/11/26 00:34:21;;;;;;;18.60;2.15;;;3.60;99.90;;;;;;5035961;28;20022;-67
2021/11/26 00:36:47;;;;;;;24.60;2.30;;;3.70;99.90;;;;;;5036522;28;20104;-67
2021/11/26 00:39:12;;;;;;;12.57;2.03;;;3.70;99.90;;;;;;5036641;28;20029;-67
2021/11/26 00:41:38;;;;;;;17.75;1.80;;;3.60;99.90;;;;;;5036758;28;20022;-67
2021/11/26 00:44:04;;;;;;;10.63;1.83;;;3.60;99.90;;;;;;5036337;28;20033;-67
2021/11/26 00:46:30;;;;;;;23.77;2.10;;;3.60;99.90;;;;;;5035851;28;20428;-66
2021/11/26 00:48:55;;;;;;;8.57;1.77;;;3.50;99.90;;;;;;5034997;28;20022;-67
2021/11/26 00:51:21;;;;;;;13.25;1.80;;;3.40;99.90;;;;;;5036463;28;20037;-67
2021/11/26 00:53:47;;;;;;;9.50;2.17;;;3.40;99.90;;;;;;5035729;28;20025;-67
2021/11/26 00:56:13;;;;;;;14.20;1.70;;;3.30;99.90;;;;;;5036069;28;20052;-67
2021/11/26 00:58:38;;;;;;;9.93;2.10;;;3.30;99.90;;;;;;5035747;28;20388;-67
2021/11/26 01:01:04;;;;;;;11.57;1.95;;;3.30;99.90;;;;;;5035906;28;20041;-67
2021/11/26 01:03:30;;;;;;;21.27;2.65;;;3.30;99.90;;;;;;5035778;28;20026;-67
2021/11/26 01:05:56;;;;;;;11.48;1.70;;;3.40;99.90;;;;;;5035973;28;20516;-67
2021/11/26 01:08:23;;;;;;;11.80;1.65;;;3.40;99.90;;;;;;5035561;28;20056;-67
2021/11/26 01:10:50;;;;;;;25.92;1.90;;;3.40;99.90;;;;;;5034886;28;20033;-67
2021/11/26 01:13:17;;;;;;;4.95;1.40;;;3.30;99.90;;;;;;5035675;28;20105;-67
2021/11/26 01:15:43;;;;;;;13.43;2.28;;;3.30;99.90;;;;;;5035781;28;20029;-67
2021/11/26 01:18:13;;;;;;;26.77;1.92;;;3.20;99.90;;;;;;5034994;28;20030;-67
2021/11/26 01:20:40;;;;;;;13.70;1.65;;;3.10;99.90;;;;;;5035186;28;20030;-67
2021/11/26 01:23:07;;;;;;;13.45;1.38;;;3.10;99.90;;;;;;5035357;28;20045;-67
2021/11/26 01:25:34;;;;;;;10.43;2.22;;;3.00;99.90;;;;;;5035593;28;20401;-67
2021/11/26 01:28:00;;;;;;;6.50;1.50;;;2.90;99.90;;;;;;5034744;28;20045;-67
2021/11/26 01:30:32;;;;;;;7.75;1.38;;;2.80;99.90;;;;;;5035471;28;20380;-67
2021/11/26 01:33:02;;;;;;;9.10;1.45;;;2.70;99.90;;;;;;5035459;28;20036;-67
2021/11/26 01:35:29;;;;;;;7.65;1.55;;;2.60;99.90;;;;;;5035359;28;20104;-67
2021/11/26 01:37:55;;;;;;;13.52;1.40;;;2.60;99.90;;;;;;5035092;28;20029;-67
2021/11/26 01:40:21;;;;;;;10.00;1.70;;;2.60;99.90;;;;;;5034748;28;20539;-67
2021/11/26 01:42:50;;;;;;;18.10;1.77;;;2.60;99.90;;;;;;5035278;28;20086;-67
2021/11/26 01:45:17;;;;;;;7.55;1.80;;;2.50;99.90;;;;;;5035538;28;20026;-67
2021/11/26 01:47:43;;;;;;;12.00;2.25;;;2.60;99.90;;;;;;5034788;28;20607;-67
2021/11/26 01:50:10;;;;;;;12.02;1.85;;;2.60;99.90;;;;;;5034779;28;20032;-67
2021/11/26 01:52:36;;;;;;;12.68;1.83;;;2.60;99.90;;;;;;5035121;28;20022;-67
2021/11/26 01:55:04;;;;;;;9.45;2.00;;;2.70;99.90;;;;;;5034499;28;20029;-67
2021/11/26 01:57:29;;;;;;;20.65;2.35;;;2.70;99.90;;;;;;5035258;28;20033;-67
2021/11/26 01:59:55;;;;;;;8.35;2.00;;;2.70;99.90;;;;;;5034640;28;20489;-67
2021/11/26 02:02:21;;;;;;;12.30;2.00;;;2.70;99.90;;;;;;5034917;28;20026;-67
2021/11/26 02:04:46;;;;;;;9.10;1.80;;;2.70;99.90;;;;;;5034576;28;20120;-66
2021/11/26 02:07:13;;;;;;;7.53;1.60;;;2.70;99.90;;;;;;5034762;28;20115;-67
2021/11/26 02:09:39;;;;;;;15.27;1.88;;;2.80;99.90;;;;;;5033708;28;20485;-66
2021/11/26 02:12:06;;;;;;;20.92;2.40;;;2.90;99.90;;;;;;5034510;28;20033;-67
2021/11/26 02:14:31;;;;;;;11.73;1.75;;;2.90;99.90;;;;;;5034617;28;20017;-67
2021/11/26 02:16:57;;;;;;;25.77;2.78;;;3.10;99.90;;;;;;5034370;28;20036;-67
2021/11/26 02:19:24;;;;;;;14.63;2.72;;;3.40;99.90;;;;;;5034516;28;20060;-67
2021/11/26 02:21:52;;;;;;;13.10;1.98;;;3.60;99.90;;;;;;5034515;28;20044;-67
2021/11/26 02:24:18;;;;;;;18.02;1.67;;;3.60;99.90;;;;;;5033924;28;20501;-67
2021/11/26 02:26:46;;;;;;;34.72;2.63;;;3.60;99.90;;;;;;5034105;28;20036;-67
2021/11/26 02:29:14;;;;;;;27.50;1.75;;;3.60;99.90;;;;;;5034559;28;20032;-67
2021/11/26 02:31:40;;;;;;;21.15;2.53;;;3.70;99.90;;;;;;5033451;28;20148;-67
2021/11/26 02:34:07;;;;;;;14.77;2.72;;;3.80;99.90;;;;;;5033777;28;20164;-66
2021/11/26 02:36:33;;;;;;;19.95;1.88;;;3.80;99.90;;;;;;5034203;28;20021;-66
2021/11/26 02:38:59;;;;;;;9.80;2.33;;;3.60;99.90;;;;;;5034386;28;20399;-66
2021/11/26 02:41:25;;;;;;;13.45;1.38;;;3.50;99.90;;;;;;5034170;28;20423;-66
2021/11/26 02:43:51;;;;;;;19.17;1.88;;;3.40;99.90;;;;;;5034224;28;20091;-66
2021/11/26 02:46:18;;;;;;;13.82;1.98;;;3.30;99.90;;;;;;5033954;28;20088;-66
2021/11/26 02:48:45;;;;;;;10.77;1.83;;;3.30;99.90;;;;;;5033445;28;20029;-66
2021/11/26 02:51:11;;;;;;;8.07;1.95;;;3.20;99.90;;;;;;5033813;28;20037;-66
2021/11/26 02:53:36;;;;;;;4.30;1.08;;;3.10;99.90;;;;;;5034005;28;20033;-66
2021/11/26 02:56:02;;;;;;;10.57;1.58;;;3.00;99.90;;;;;;5033094;28;20079;-66
2021/11/26 02:58:28;;;;;;;5.05;0.98;;;3.00;99.90;;;;;;5033909;28;20102;-66
2021/11/26 03:00:56;;;;;;;13.00;1.08;;;3.00;99.90;;;;;;5033619;28;20021;-66
2021/11/26 03:03:22;;;;;;;4.72;1.08;;;2.90;99.90;;;;;;5033784;28;20392;-66
2021/11/26 03:05:48;;;;;;;6.13;1.17;;;2.80;99.90;;;;;;5032883;28;20029;-66
2021/11/26 03:08:14;;;;;;;4.05;1.45;;;2.80;99.90;;;;;;5033914;28;20052;-66
2021/11/26 03:10:40;;;;;;;11.25;1.25;;;2.70;99.90;;;;;;5033366;28;20040;-66
2021/11/26 03:13:08;;;;;;;9.88;1.42;;;2.70;99.90;;;;;;5033932;28;20476;-66
2021/11/26 03:15:36;;;;;;;10.05;1.10;;;2.70;99.90;;;;;;5033827;28;20044;-66
2021/11/26 03:18:02;;;;;;;9.48;1.85;;;2.60;99.90;;;;;;5032702;28;20117;-66
2021/11/26 03:20:29;;;;;;;4.18;1.08;;;2.60;99.90;;;;;;5033642;28;20032;-66
2021/11/26 03:22:55;;;;;;;6.47;1.10;;;2.60;99.90;;;;;;5033170;28;20429;-66
2021/11/26 03:25:21;;;;;;;2.45;1.17;;;2.60;99.90;;;;;;5033169;28;20041;-66
2021/11/26 03:27:47;;;;;;;4.85;1.05;;;2.50;99.90;;;;;;5033320;28;20026;-66
2021/11/26 03:30:16;;;;;;;4.22;1.15;;;2.50;99.90;;;;;;5032586;28;20026;-66
2021/11/26 03:32:43;;;;;;;3.00;0.85;;;2.50;99.90;;;;;;5013853;28;20456;-66
2021/11/26 03:35:09;;;;;;;2.47;1.00;;;2.40;99.90;;;;;;5013827;28;20076;-66
2021/11/26 03:37:36;;;;;;;7.68;1.80;;;2.40;99.90;;;;;;5032024;28;20493;-66
2021/11/26 03:40:04;;;;;;;12.10;2.95;;;2.40;99.90;;;;;;5032611;28;20116;-66
2021/11/26 03:42:30;;;;;;;6.65;1.10;;;2.40;99.90;;;;;;5032831;28;20485;-66
2021/11/26 03:44:55;;;;;;;12.98;1.67;;;2.40;99.90;;;;;;5033442;28;20113;-66
2021/11/26 03:47:21;;;;;;;5.97;1.73;;;2.40;99.90;;;;;;5032763;28;20083;-66
2021/11/26 03:49:46;;;;;;;12.48;1.95;;;2.50;99.90;;;;;;5032210;28;20065;-66
2021/11/26 03:52:12;;;;;;;9.90;1.88;;;2.50;99.90;;;;;;5033343;28;20018;-66
2021/11/26 03:54:40;;;;;;;14.48;1.77;;;2.60;99.90;;;;;;5032826;28;20159;-66
2021/11/26 03:57:06;;;;;;;14.75;3.22;;;2.70;99.90;;;;;;5033005;28;20489;-66
2021/11/26 03:59:31;;;;;;;10.65;1.48;;;2.60;99.90;;;;;;5032196;28;20029;-66
2021/11/26 04:01:57;;;;;;;10.95;1.40;;;2.70;99.90;;;;;;5032933;28;20029;-66
2021/11/26 04:04:22;;;;;;;13.00;1.33;;;2.70;99.90;;;;;;5032695;28;20096;-66
2021/11/26 04:06:48;;;;;;;5.78;1.30;;;2.80;99.90;;;;;;5033261;28;20108;-66
2021/11/26 04:09:14;;;;;;;8.43;1.80;;;2.80;99.90;;;;;;5032470;28;20083;-66
2021/11/26 04:11:39;;;;;;;13.88;1.67;;;2.80;99.90;;;;;;5032256;28;20455;-66
2021/11/26 04:14:05;;;;;;;7.95;1.70;;;2.80;99.90;;;;;;5033218;28;20029;-66
2021/11/26 04:16:32;;;;;;;11.43;2.45;;;2.80;99.90;;;;;;5032872;28;20036;-66
2021/11/26 04:18:58;;;;;;;7.68;1.63;;;2.80;99.90;;;;;;5032645;28;20088;-66
2021/11/26 04:21:24;;;;;;;7.03;2.42;;;2.80;99.90;;;;;;5032677;28;20033;-66
2021/11/26 04:23:49;;;;;;;6.95;1.90;;;2.80;99.90;;;;;;5033050;28;20079;-66
2021/11/26 04:26:15;;;;;;;8.75;1.67;;;2.70;99.90;;;;;;5032786;28;20034;-66
2021/11/26 04:28:40;;;;;;;5.85;1.48;;;2.70;99.90;;;;;;5032722;28;20025;-66
2021/11/26 04:31:06;;;;;;;2.30;0.93;;;2.70;99.90;;;;;;5032471;28;20575;-66
2021/11/26 04:33:33;;;;;;;6.03;1.23;;;2.70;99.90;;;;;;5032310;28;20029;-66
2021/11/26 04:36:00;;;;;;;6.70;1.45;;;2.60;99.90;;;;;;5032311;28;20022;-66
2021/11/26 04:38:26;;;;;;;8.63;1.08;;;2.60;99.90;;;;;;5032637;28;20548;-66
2021/11/26 04:40:51;;;;;;;5.38;1.45;;;2.60;99.90;;;;;;5032903;28;20061;-66
2021/11/26 04:43:17;;;;;;;8.68;1.77;;;2.60;99.90;;;;;;5032135;28;20366;-66
2021/11/26 04:45:43;;;;;;;14.30;1.67;;;2.60;99.90;;;;;;5032622;28;20029;-66
2021/11/26 04:48:08;;;;;;;15.43;1.70;;;2.50;99.90;;;;;;5032818;28;20036;-66
2021/11/26 04:50:34;;;;;;;7.50;1.15;;;2.60;99.90;;;;;;5032073;28;20029;-66
2021/11/26 04:53:00;;;;;;;17.83;1.70;;;2.60;99.90;;;;;;5031780;28;20037;-66
2021/11/26 04:55:25;;;;;;;7.78;1.10;;;2.60;99.90;;;;;;5033999;28;20032;-66
2021/11/26 04:57:51;;;;;;;7.80;1.15;;;2.70;99.90;;;;;;5036162;28;20045;-66
2021/11/26 05:00:20;;;;;;;8.38;1.70;;;2.60;99.90;;;;;;5035876;28;20022;-66
2021/11/26 05:02:46;;;;;;;5.97;1.30;;;2.70;99.90;;;;;;5036334;28;20068;-66
2021/11/26 05:05:12;;;;;;;9.73;1.20;;;2.70;99.90;;;;;;5035459;28;20029;-66
2021/11/26 05:07:38;;;;;;;9.00;1.95;;;2.70;99.90;;;;;;5036137;28;20037;-66
2021/11/26 05:10:05;;;;;;;10.95;1.67;;;2.70;99.90;;;;;;5035726;28;20037;-66
2021/11/26 05:12:36;;;;;;;6.70;1.70;;;2.70;99.90;;;;;;5035564;28;20049;-66
2021/11/26 05:15:03;;;;;;;37.25;17.40;;;2.80;99.90;;;;;;5036134;28;20025;-66
2021/11/26 05:17:29;;;;;;;15.40;5.00;;;2.80;99.90;;;;;;5035175;28;20377;-66
2021/11/26 05:19:54;;;;;;;13.52;2.53;;;2.90;99.90;;;;;;5035649;28;20033;-66
2021/11/26 05:22:20;;;;;;;6.45;2.00;;;2.90;99.90;;;;;;5035452;28;20041;-66
2021/11/26 05:24:45;;;;;;;7.38;2.28;;;3.00;99.90;;;;;;5035676;28;20138;-66
2021/11/26 05:27:11;;;;;;;15.27;1.75;;;3.00;99.90;;;;;;5034781;28;20089;-66
2021/11/26 05:29:36;;;;;;;25.33;3.65;;;3.00;99.90;;;;;;5035712;28;20485;-66
2021/11/26 05:32:02;;;;;;;25.85;5.43;;;3.10;99.90;;;;;;5035163;28;20030;-66
2021/11/26 05:34:28;;;;;;;28.35;6.00;;;3.10;99.90;;;;;;5035458;28;20064;-66
2021/11/26 05:36:53;;;;;;;19.70;3.97;;;3.10;99.90;;;;;;5035223;28;20040;-66
2021/11/26 05:39:19;;;;;;;16.40;2.70;;;3.10;99.90;;;;;;5034820;28;20512;-66
2021/11/26 05:41:45;;;;;;;8.27;2.13;;;3.10;99.90;;;;;;5034996;28;20021;-66
2021/11/26 05:44:10;;;;;;;10.27;2.55;;;3.10;99.90;;;;;;5035825;28;20041;-66
2021/11/26 05:46:36;;;;;;;11.07;2.47;;;3.10;99.90;;;;;;5035266;28;20423;-66
2021/11/26 05:49:02;;;;;;;5.07;1.52;;;3.10;99.90;;;;;;5034752;28;20022;-66
2021/11/26 05:51:28;;;;;;;9.95;1.42;;;3.10;99.90;;;;;;5034689;28;20022;-66
2021/11/26 05:53:54;;;;;;;6.90;1.92;;;3.10;99.90;;;;;;5035136;28;20481;-66
2021/11/26 05:56:19;;;;;;;10.10;2.05;;;3.10;99.90;;;;;;5034910;28;20057;-66
2021/11/26 05:58:45;;;;;;;16.35;2.38;;;3.10;99.90;;;;;;5034964;28;20487;-66
2021/11/26 06:01:10;;;;;;;5.80;1.50;;;3.10;99.90;;;;;;5034948;28;20036;-66
2021/11/26 06:03:36;;;;;;;9.98;2.03;;;3.10;99.90;;;;;;5034062;28;20175;-66
2021/11/26 06:06:02;;;;;;;5.30;1.80;;;3.10;99.90;;;;;;5034883;28;20087;-66
2021/11/26 06:08:27;;;;;;;10.25;2.53;;;3.10;99.90;;;;;;5034806;28;20036;-65
2021/11/26 06:10:54;;;;;;;2.85;1.10;;;3.10;99.90;;;;;;5033981;28;20403;-66
2021/11/26 06:13:20;;;;;;;1.98;1.00;;;3.10;99.90;;;;;;5034491;28;20494;-66
2021/11/26 06:15:45;;;;;;;3.92;1.10;;;3.10;99.90;;;;;;5034410;28;20034;-67
2021/11/26 06:18:13;;;;;;;12.63;1.38;;;3.10;99.90;;;;;;5016530;28;20034;-66
2021/11/26 06:20:38;;;;;;;8.65;1.30;;;3.00;99.90;;;;;;5034572;28;20109;-66
2021/11/26 06:23:04;;;;;;;7.25;1.70;;;3.00;99.90;;;;;;5034291;28;20053;-66
2021/11/26 06:25:30;;;;;;;7.25;1.45;;;3.00;99.90;;;;;;5034062;28;20040;-66
2021/11/26 06:27:55;;;;;;;12.80;1.65;;;3.00;99.90;;;;;;5034131;28;20025;-66
2021/11/26 06:30:23;;;;;;;16.52;1.73;;;3.00;99.90;;;;;;5034642;28;20048;-66
2021/11/26 06:32:50;;;;;;;14.55;1.73;;;3.00;99.90;;;;;;5034431;28;20485;-66
2021/11/26 06:35:19;;;;;;;15.20;1.60;;;3.00;99.90;;;;;;5034061;28;20029;-66
2021/11/26 06:37:45;;;;;;;16.83;2.03;;;3.00;99.90;;;;;;5034367;28;20052;-66
2021/11/26 06:40:12;;;;;;;18.13;2.03;;;3.00;99.90;;;;;;5034187;28;20464;-66
2021/11/26 06:42:37;;;;;;;19.60;2.22;;;3.10;99.90;;;;;;5034059;28;20029;-66
2021/11/26 06:45:04;;;;;;;15.73;2.08;;;3.10;99.90;;;;;;5034403;28;20113;-66
2021/11/26 06:47:30;;;;;;;10.88;1.75;;;3.20;99.90;;;;;;5033705;28;20029;-66
2021/11/26 06:49:56;;;;;;;11.10;1.50;;;3.20;99.90;;;;;;5033535;28;20079;-66
2021/11/26 06:52:21;;;;;;;18.15;2.15;;;3.20;99.90;;;;;;5034006;28;20099;-66
2021/11/26 06:54:47;;;;;;;17.58;1.90;;;3.20;99.90;;;;;;5034211;28;20026;-66
2021/11/26 06:57:13;;;;;;;15.65;2.05;;;3.30;99.90;;;;;;5034226;28;20110;-66
2021/11/26 06:59:38;;;;;;;19.30;2.33;;;3.30;99.90;;;;;;5033329;28;20026;-66
2021/11/26 07:02:05;;;;;;;7.80;1.95;;;3.30;99.90;;;;;;5033793;28;20104;-66
2021/11/26 07:04:31;;;;;;;12.68;1.58;;;3.30;99.90;;;;;;5033292;28;20029;-66
2021/11/26 07:06:56;;;;;;;34.17;2.50;;;3.40;99.90;;;;;;5033909;28;20025;-66
2021/11/26 07:09:22;;;;;;;17.67;2.15;;;3.40;99.90;;;;;;5033192;28;20556;-66
2021/11/26 07:11:48;;;;;;;22.40;2.67;;;3.50;99.90;;;;;;5033634;28;20104;-66
2021/11/26 07:14:13;;;;;;;11.52;1.70;;;3.50;99.90;;;;;;5033385;28;20049;-66
2021/11/26 07:16:39;;;;;;;22.65;2.03;;;3.50;99.90;;;;;;5033418;28;20025;-66
2021/11/26 07:19:04;;;;;;;15.20;2.30;;;3.60;99.90;;;;;;5032933;28;20082;-66
2021/11/26 07:21:30;;;;;;;7.22;2.00;;;3.50;99.90;;;;;;5033414;28;20057;-66
2021/11/26 07:23:56;;;;;;;9.32;2.00;;;3.50;99.90;;;;;;5033333;28;20026;-66
2021/11/26 07:26:23;;;;;;;17.77;2.10;;;3.50;99.90;;;;;;5033385;28;20033;-66
2021/11/26 07:28:49;;;;;;;8.93;1.77;;;3.50;99.90;;;;;;5032874;28;20022;-66
2021/11/26 07:31:16;;;;;;;8.98;1.30;;;3.50;99.90;;;;;;5033322;28;20033;-66
2021/11/26 07:33:41;;;;;;;9.50;1.77;;;3.50;99.90;;;;;;5033313;28;20111;-66
2021/11/26 07:36:07;;;;;;;10.20;1.65;;;3.40;99.90;;;;;;5033335;28;20049;-66
2021/11/26 07:38:34;;;;;;;23.77;2.58;;;3.40;99.90;;;;;;5033244;28;20445;-66
2021/11/26 07:41:00;;;;;;;12.85;2.10;;;3.50;99.90;;;;;;5032424;28;20057;-66
2021/11/26 07:43:26;;;;;;;18.90;2.55;;;3.50;99.90;;;;;;5033200;28;20064;-66
2021/11/26 07:45:51;;;;;;;13.27;2.10;;;3.50;99.90;;;;;;5032933;28;20396;-66
2021/11/26 07:48:18;;;;;;;9.65;2.15;;;3.50;99.90;;;;;;5033036;28;20025;-66
2021/11/26 07:50:44;;;;;;;10.35;2.22;;;3.50;99.90;;;;;;5032245;28;20030;-66
2021/11/26 07:53:09;;;;;;;12.70;2.10;;;3.50;99.90;;;;;;5033133;28;20068;-66
2021/11/26 07:55:35;;;;;;;8.48;1.83;;;3.50;99.90;;;;;;5032875;28;20053;-66
2021/11/26 07:58:02;;;;;;;12.27;1.50;;;3.50;99.90;;;;;;5032616;28;20034;-66
2021/11/26 08:00:28;;;;;;;8.75;1.60;;;3.60;99.90;;;;;;5032953;28;20112;-66
2021/11/26 08:02:55;;;;;;;7.85;1.50;;;3.60;99.90;;;;;;5033074;28;20105;-66
2021/11/26 08:05:20;;;;;;;21.40;2.13;;;3.60;99.90;;;;;;5032960;28;20040;-66
2021/11/26 08:07:46;;;;;;;7.63;1.20;;;3.70;99.90;;;;;;5032888;28;20030;-66
2021/11/26 08:10:12;;;;;;;16.33;1.98;;;3.70;99.90;;;;;;5032661;28;20046;-66
2021/11/26 08:12:39;;;;;;;12.25;1.98;;;3.80;99.90;;;;;;5032478;28;20041;-66
2021/11/26 08:15:07;;;;;;;9.98;1.60;;;3.80;99.90;;;;;;5032944;28;20029;-66
2021/11/26 08:17:33;;;;;;;18.33;1.73;;;3.90;99.90;;;;;;5032925;28;20022;-66
2021/11/26 08:19:58;;;;;;;9.88;1.70;;;3.90;99.90;;;;;;5032876;28;20032;-66
2021/11/26 08:22:24;;;;;;;13.27;2.17;;;3.90;99.90;;;;;;5032717;28;20095;-66
2021/11/26 08:24:50;;;;;;;14.57;2.17;;;3.90;99.90;;;;;;5032566;28;20034;-66
2021/11/26 08:27:16;;;;;;;9.18;1.73;;;3.90;99.90;;;;;;5032235;28;20025;-66
2021/11/26 08:29:41;;;;;;;6.22;1.48;;;3.80;99.90;;;;;;5033154;28;20025;-66
2021/11/26 08:32:07;;;;;;;27.20;1.77;;;3.90;99.90;;;;;;5036945;28;20053;-66
2021/11/26 08:34:33;;;;;;;15.82;1.83;;;3.90;99.90;;;;;;5036257;28;20044;-67
2021/11/26 08:36:59;;;;;;;11.65;1.30;;;4.00;99.90;;;;;;5036250;28;20480;-66
2021/11/26 08:39:25;;;;;;;8.13;1.17;;;4.00;99.90;;;;;;5036026;28;20025;-66
2021/11/26 08:41:50;;;;;;;10.20;1.80;;;4.00;99.90;;;;;;5036292;28;20104;-66
2021/11/26 08:44:16;;;;;;;8.13;1.42;;;4.00;99.90;;;;;;5035898;28;20365;-66
2021/11/26 08:46:41;;;;;;;8.70;1.42;;;4.00;99.90;;;;;;5036666;28;20026;-66
2021/11/26 08:49:07;;;;;;;8.23;1.30;;;4.00;99.90;;;;;;5036184;28;20033;-66
2021/11/26 08:51:35;;;;;;;8.30;1.25;;;4.00;99.90;;;;;;5036311;28;20029;-66
2021/11/26 08:54:02;;;;;;;7.90;1.23;;;4.10;99.90;;;;;;5036527;28;20021;-66
2021/11/26 08:56:28;;;;;;;4.80;1.60;;;4.10;99.90;;;;;;5035983;28;20098;-66
2021/11/26 08:58:54;;;;;;;10.63;1.30;;;4.10;99.90;;;;;;5035676;28;20102;-66
2021/11/26 09:01:19;;;;;;;7.05;1.48;;;4.10;99.90;;;;;;5035777;28;20040;-66
2021/11/26 09:03:47;;;;;;;12.43;1.83;;;4.20;99.90;;;;;;5036039;28;20036;-66
2021/11/26 09:06:17;;;;;;;13.07;1.58;;;4.20;99.90;;;;;;5035345;28;20049;-66
2021/11/26 09:08:43;;;;;;;11.40;1.50;;;4.20;99.90;;;;;;5036965;28;20033;-67
2021/11/26 09:11:09;;;;;;;10.68;1.40;;;4.20;99.90;;;;;;5035063;28;20470;-66
2021/11/26 09:13:34;;;;;;;9.68;1.40;;;4.20;99.90;;;;;;5036165;28;20029;-67
2021/11/26 09:16:00;;;;;;;13.02;1.90;;;4.20;99.90;;;;;;5035521;28;20029;-66
2021/11/26 09:18:28;;;;;;;16.20;1.95;;;4.30;99.90;;;;;;5036069;28;20104;-66
2021/11/26 09:20:54;;;;;;;9.05;2.38;;;4.20;99.90;;;;;;5035695;28;20044;-66
2021/11/26 09:23:21;;;;;;;6.20;1.50;;;4.20;99.90;;;;;;5035955;28;20044;-66
2021/11/26 09:25:47;;;;;;;8.50;1.80;;;4.10;99.90;;;;;;5035083;28;20428;-66
2021/11/26 09:28:13;;;;;;;14.68;1.90;;;4.10;99.90;;;;;;5036088;28;20047;-66
2021/11/26 09:30:39;;;;;;;12.55;2.13;;;4.10;99.90;;;;;;5035261;28;20473;-66
2021/11/26 09:33:06;;;;;;;8.00;2.53;;;4.10;99.90;;;;;;5035912;28;20085;-67
2021/11/26 09:35:32;;;;;;;10.68;2.95;;;4.20;99.90;;;;;;5035495;28;20017;-66
2021/11/26 09:38:01;;;;;;;10.43;3.92;;;4.10;99.90;;;;;;5035604;28;20500;-66
2021/11/26 09:40:28;;;;;;;10.80;4.32;;;4.20;99.90;;;;;;5034659;28;20030;-66
2021/11/26 09:42:54;;;;;;;11.82;5.18;;;4.10;99.90;;;;;;5035262;28;20377;-66
2021/11/26 09:45:22;;;;;;;11.20;7.38;;;4.10;99.90;;;;;;5035386;28;20037;-66
2021/11/26 09:47:52;;;;;;;20.60;8.80;;;4.20;99.90;;;;;;5014846;28;20104;-66
2021/11/26 09:50:19;;;;;;;28.52;13.48;;;4.30;99.90;;;;;;5031559;28;20033;-66
2021/11/26 09:52:45;;;;;;;30.85;14.23;;;4.30;99.90;;;;;;5034579;28;20028;-66
2021/11/26 09:55:13;;;;;;;28.05;14.60;;;4.30;99.90;;;;;;5036128;28;20029;-66
2021/11/26 09:57:40;;;;;;;37.10;18.73;;;4.40;99.90;;;;;;5034754;28;20017;-66
2021/11/26 10:00:08;;;;;;;34.38;15.55;;;4.40;99.90;;;;;;5034689;28;20026;-66
2021/11/26 10:02:33;;;;;;;39.90;16.42;;;4.50;99.90;;;;;;5035246;28;20044;-67
2021/11/26 10:05:06;;;;;;;31.85;16.00;;;4.60;99.90;;;;;;5034680;28;20485;-66
2021/11/26 10:07:42;;;;;;;33.65;16.10;;;4.60;99.90;;;;;;5034484;28;20034;-66
2021/11/26 10:10:09;;;;;;;35.08;16.63;;;4.60;99.90;;;;;;5034513;28;20034;-66
2021/11/26 10:12:35;;;;;;;31.38;16.60;;;4.50;99.90;;;;;;5035075;28;20044;-66
2021/11/26 10:15:01;;;;;;;24.17;14.80;;;4.60;99.90;;;;;;5034509;28;20492;-66
2021/11/26 10:17:27;;;;;;;26.50;13.95;;;4.60;99.90;;;;;;5034683;28;20037;-66
2021/11/26 10:19:56;;;;;;;27.98;14.95;;;4.60;99.90;;;;;;5034060;28;20112;-66
2021/11/26 10:22:44;;;;;;;36.58;15.27;;;4.70;99.90;;;;;;5034602;28;20049;-67
2021/11/26 10:25:18;;;;;;;32.25;15.40;;;4.60;99.90;;;;;;5033474;28;20397;-66
2021/11/26 10:27:57;;;;;;;;;;;4.70;99.90;;;;;;5034823;28;20030;-67
2021/11/26 10:30:24;;;;;;;30.35;15.85;;;4.70;99.90;;;;;;5033855;28;19916;-66
2021/11/26 10:32:58;;;;;;;27.45;14.98;;;4.60;99.90;;;;;;5034327;28;20484;-66
2021/11/26 10:35:30;;;;;;;25.20;13.75;;;4.60;99.90;;;;;;5034085;28;20489;-66
2021/11/26 10:38:06;;;;;;;25.50;13.38;;;4.60;99.90;;;;;;5034174;28;20362;-66
2021/11/26 10:40:34;;;;;;;33.72;13.32;;;4.60;99.90;;;;;;5014172;28;20489;-66
2021/11/26 10:43:03;;;;;;;23.17;11.90;;;4.60;99.90;;;;;;5015486;28;20072;-66
2021/11/26 10:45:52;;;;;;;30.05;12.95;;;4.50;99.90;;;;;;5033644;28;20485;-66
2021/11/26 10:48:48;;;;;;;21.50;11.40;;;4.50;99.90;;;;;;5034071;28;20071;-66
2021/11/26 10:51:41;;;;;;;26.38;11.02;;;4.60;99.90;;;;;;5035097;28;20025;-66
2021/11/26 10:57:36;;;;;;;19.27;8.48;;;4.60;99.90;;;;;;5034007;28;20193;-66
2021/11/26 10:59:40;;;;;;;25.00;8.23;;;4.60;99.90;;;;;;5029316;28;20083;-66
2021/11/26 11:02:07;;;;;;;19.52;7.05;;;4.60;99.90;;;;;;5033857;28;20056;-66
2021/11/26 11:04:37;;;;;;;15.63;6.93;;;4.60;99.90;;;;;;5033538;28;20079;-66
2021/11/26 11:07:08;;;;;;;14.85;6.75;;;4.70;99.90;;;;;;5034290;28;20022;-66
2021/11/26 11:09:44;;;;;;;19.13;7.35;;;4.70;99.90;;;;;;5032754;28;20040;-66
2021/11/26 11:12:11;;;;;;;16.55;6.88;;;4.70;99.90;;;;;;5056425;23;20054;-72
2021/11/26 11:14:37;;;;;;;15.57;6.45;;;4.70;99.90;;;;;;5033453;28;20473;-72
2021/11/26 11:17:03;;;;;;;20.00;7.28;;;4.70;99.90;;;;;;5033723;28;20021;-72
2021/11/26 11:19:29;;;;;;;16.42;6.00;;;4.70;99.90;;;;;;5032725;28;20036;-72
2021/11/26 11:21:57;;;;;;;18.00;5.85;;;4.70;99.90;;;;;;5033502;28;20021;-72
2021/11/26 11:24:23;;;;;;;24.70;6.43;;;4.70;99.90;;;;;;5033396;28;20033;-72
2021/11/26 11:26:50;;;;;;;16.92;6.47;;;4.60;99.90;;;;;;5031937;28;20036;-71
2021/11/26 11:29:22;;;;;;;11.45;5.18;;;4.60;99.90;;;;;;5032595;28;20037;-72
2021/11/26 11:31:49;;;;;;;15.98;4.22;;;4.60;99.90;;;;;;5033422;28;20096;-72
2021/11/26 11:34:19;;;;;;;14.38;4.50;;;4.60;99.90;;;;;;5033126;28;20026;-72
2021/11/26 11:36:46;;;;;;;13.65;4.90;;;4.60;99.90;;;;;;5033561;28;20120;-72
2021/11/26 11:39:12;;;;;;;11.45;4.47;;;4.50;99.90;;;;;;5033113;28;20025;-72
2021/11/26 11:41:55;;;;;;;14.23;4.68;;;4.60;99.90;;;;;;5032868;28;20028;-72
2021/11/26 11:44:33;;;;;;;11.27;5.15;;;4.60;99.90;;;;;;5033179;28;20078;-72
2021/11/26 11:47:01;;;;;;;13.48;5.30;;;4.60;99.90;;;;;;5033454;28;20045;-72
2021/11/26 11:49:31;;;;;;;16.27;6.00;;;4.60;99.90;;;;;;5032657;28;20087;-72
2021/11/26 11:51:59;;;;;;;26.05;7.03;;;4.60;99.90;;;;;;5033120;28;20469;-72
2021/11/26 11:54:37;;;;;;;20.10;6.28;;;4.60;99.90;;;;;;5032450;28;20463;-72
2021/11/26 11:57:04;;;;;;;11.38;6.03;;;4.60;99.90;;;;;;5033191;28;20480;-72
2021/11/26 11:59:33;;;;;;;18.80;5.88;;;4.70;99.90;;;;;;5033230;28;20365;-72
2021/11/26 12:02:04;;;;;;;26.23;7.63;;;4.70;99.90;;;;;;5033094;28;20022;-72
2021/11/26 12:04:38;;;;;;;25.33;6.68;;;4.80;99.90;;;;;;5034935;28;20025;-72
2021/11/26 12:07:04;;;;;;;20.30;7.65;;;4.80;99.90;;;;;;5035986;28;20384;-72
2021/11/26 12:09:31;;;;;;;28.33;7.78;;;4.90;99.90;;;;;;5036304;28;20042;-72
2021/11/26 12:12:20;;;;;;;20.67;6.75;;;4.80;99.90;;;;;;5036921;28;20040;-72
2021/11/26 12:14:53;;;;;;;24.52;7.93;;;4.90;99.90;;;;;;5036840;28;20021;-72
2021/11/26 12:17:37;;;;;;;19.90;6.83;;;4.90;99.90;;;;;;5036786;28;20019;-72
2021/11/26 12:20:11;;;;;;;18.30;6.72;;;4.90;99.90;;;;;;5036364;28;20050;-72
2021/11/26 12:22:39;;;;;;;31.05;10.52;;;4.80;99.90;;;;;;5017122;28;20029;-72
2021/11/26 12:28:09;;;;;;;27.60;7.95;;;4.80;99.90;;;;;;5036235;28;20095;-72
2021/11/26 12:30:40;;;;;;;18.55;7.10;;;4.90;99.90;;;;;;5035488;28;20030;-72
2021/11/26 12:33:17;;;;;;;19.35;7.07;;;4.80;99.90;;;;;;5036441;28;20431;-72
2021/11/26 12:35:54;;;;;;;20.77;8.80;;;4.80;99.90;;;;;;5036377;28;20033;-72
2021/11/26 12:38:19;;;;;;;29.67;8.48;;;4.80;99.90;;;;;;5036623;28;20033;-72
2021/11/26 12:40:45;;;;;;;22.00;9.07;;;4.80;99.90;;;;;;5035929;28;20029;-72
2021/11/26 12:43:11;;;;;;;23.30;10.73;;;4.80;99.90;;;;;;5035517;28;20100;-72
2021/11/26 12:45:36;;;;;;;19.98;9.63;;;4.80;99.90;;;;;;5036393;28;20044;-72
2021/11/26 13:15:27;;;;;;;29.25;14.70;;;4.60;99.90;;;;;;5098363;27;20400;-70
2021/11/26 13:17:54;;;;;;;37.63;16.25;;;4.60;99.90;;;;;;5095446;28;20039;-71
2021/11/26 13:20:35;;;;;;;32.25;14.85;;;4.70;99.90;;;;;;5091753;28;20104;-70
2021/11/26 13:23:12;;;;;;;37.70;16.00;;;4.70;99.90;;;;;;5102595;28;20016;-72